Time;durP1;ratioP1;P1;durP2;ratioP2;P2;SDS_P1;SDS_P2;PMS_P1;PMS_P2;Temp;Humidity;BMP_temperature;BMP_pressure;BME280_temperature;BME280_humidity;BME280_pressure;Samples;Min_cycle;Max_cycle;Signal;HPM_P1;HPM_P2
2021/04/11 00:01:18;;;;;;;19.38;17.83;;;;;;;7.38;70.65;99701.13;10547361;28;20405;-70
2021/04/11 00:06:19;;;;;;;17.88;16.58;;;;;;;7.40;70.69;99696.75;10547709;28;20561;-70
2021/04/11 00:11:22;;;;;;;20.13;18.23;;;;;;;7.49;70.56;99696.50;10547194;28;20110;-71
2021/04/11 00:16:24;;;;;;;19.67;18.15;;;;;;;7.55;70.08;99683.28;10547400;28;20052;-70
2021/04/11 00:21:25;;;;;;;17.17;15.82;;;;;;;7.46;70.26;99678.28;10546670;28;20043;-71
2021/04/11 00:26:27;;;;;;;17.63;16.33;;;;;;;7.65;69.67;99672.56;10545825;28;20048;-72
2021/04/11 00:31:28;;;;;;;17.80;16.20;;;;;;;7.62;70.32;99663.06;10546848;28;20040;-72
2021/04/11 00:36:29;;;;;;;18.27;16.73;;;;;;;7.52;70.13;99658.94;10546991;28;20056;-72
2021/04/11 00:41:40;;;;;;;17.27;15.88;;;;;;;7.63;69.94;99654.31;10526494;28;20040;-71
2021/04/11 00:46:53;;;;;;;16.02;14.65;;;;;;;7.92;69.19;99645.69;10544104;28;20058;-71
2021/04/11 00:51:55;;;;;;;16.90;15.05;;;;;;;8.13;67.97;99656.47;10527428;28;20089;-71
2021/04/11 00:56:57;;;;;;;13.88;12.57;;;;;;;8.45;66.23;99643.34;10526703;28;20055;-70
2021/04/11 01:01:59;;;;;;;12.85;11.65;;;;;;;8.70;65.55;99638.22;10527203;28;20062;-71
2021/04/11 01:07:07;;;;;;;11.85;10.70;;;;;;;8.81;64.96;99630.06;10543564;28;20078;-70
2021/04/11 01:12:22;;;;;;;10.27;9.32;;;;;;;9.12;63.77;99631.69;10527301;28;20044;-70
2021/04/11 01:17:24;;;;;;;10.23;9.32;;;;;;;9.28;63.00;99620.66;10543826;28;20044;-71
2021/04/11 01:22:55;;;;;;;13.05;8.80;;;;;;;9.27;63.17;99613.69;10524380;28;20063;-70
2021/04/11 01:28:02;;;;;;;10.48;9.48;;;;;;;9.31;62.79;99611.84;10543243;28;20036;-70
2021/04/11 01:33:08;;;;;;;12.65;9.85;;;;;;;9.26;63.55;99608.50;10545390;28;20339;-71
2021/04/11 01:38:11;;;;;;;13.95;9.18;;;;;;;9.28;62.78;99598.81;10525862;28;20114;-70
2021/04/11 01:43:14;;;;;;;9.63;8.82;;;;;;;9.35;62.81;99593.31;10542958;28;20119;-70
2021/04/11 01:48:19;;;;;;;9.40;8.57;;;;;;;9.01;63.72;99585.69;10544957;28;20449;-70
2021/04/11 01:53:23;;;;;;;9.10;8.30;;;;;;;8.94;64.02;99586.84;10544836;28;20036;-69
2021/04/11 01:58:27;;;;;;;9.52;8.55;;;;;;;9.14;63.34;99580.06;10533065;28;20044;-71
2021/04/11 02:03:39;;;;;;;10.18;9.18;;;;;;;9.06;63.45;99569.81;10551671;28;20039;-70
2021/04/11 02:08:45;;;;;;;9.68;8.80;;;;;;;8.93;63.98;99561.50;10533746;28;20064;-71
2021/04/11 02:13:47;;;;;;;9.15;8.25;;;;;;;8.86;64.04;99552.13;10550528;28;20066;-71
2021/04/11 02:19:28;;;;;;;9.02;8.23;;;;;;;8.97;63.82;99555.25;10531312;28;20056;-71
2021/04/11 02:24:30;;;;;;;8.95;7.80;;;;;;;9.02;63.64;99545.47;10339097;28;20082;-70
2021/04/11 02:29:32;;;;;;;9.02;8.13;;;;;;;8.98;63.44;99546.47;10338488;28;20258;-70
2021/04/11 02:34:34;;;;;;;10.32;9.05;;;;;;;9.27;62.71;99537.63;10339226;28;20049;-70
2021/04/11 02:39:40;;;;;;;9.90;9.00;;;;;;;9.31;62.33;99533.16;10341154;28;20046;-70
2021/04/11 02:44:45;;;;;;;13.10;8.45;;;;;;;9.36;62.08;99533.84;10324146;28;20528;-70
2021/04/11 02:49:51;;;;;;;11.65;7.75;;;;;;;9.24;62.11;99526.38;10339796;28;20493;-69
2021/04/11 02:54:56;;;;;;;8.65;7.85;;;;;;;9.24;62.06;99526.38;10349470;28;20046;-70
2021/04/11 02:59:58;;;;;;;9.07;8.23;;;;;;;9.23;61.81;99512.44;10548655;28;20036;-70
2021/04/11 03:05:05;;;;;;;8.20;7.43;;;;;;;9.16;61.65;99512.69;10547851;28;20107;-70
2021/04/11 03:10:16;;;;;;;8.73;7.90;;;;;;;9.21;61.93;99519.50;10547441;28;20433;-70
2021/04/11 03:15:21;;;;;;;7.97;7.25;;;;;;;9.24;61.47;99515.91;10529742;28;20055;-70
2021/04/11 03:20:44;;;;;;;11.43;7.68;;;;;;;9.31;61.06;99515.66;10529982;28;20044;-71
2021/04/11 03:26:02;;;;;;;8.73;8.02;;;;;;;9.37;60.94;99511.94;10530876;28;20067;-69
2021/04/11 03:31:12;;;;;;;8.30;7.60;;;;;;;9.32;61.02;99512.09;10548648;28;20032;-70
2021/04/11 03:36:16;;;;;;;7.57;6.82;;;;;;;9.31;60.83;99515.66;10548224;28;20095;-69
2021/04/11 03:41:21;;;;;;;8.95;7.65;;;;;;;9.51;59.97;99514.94;10529544;28;20040;-71
2021/04/11 03:46:33;;;;;;;12.13;7.50;;;;;;;9.62;59.82;99511.94;10530218;28;20113;-69
2021/04/11 03:51:40;;;;;;;8.35;7.55;;;;;;;9.53;59.96;99512.28;10530234;28;20044;-71
2021/04/11 03:56:45;;;;;;;7.43;6.73;;;;;;;9.43;60.38;99516.09;10528916;28;20122;-69
2021/04/11 04:01:51;;;;;;;7.65;6.85;;;;;;;9.37;60.10;99514.56;10528617;28;20139;-70
2021/04/11 04:07:07;;;;;;;7.70;7.00;;;;;;;9.17;60.61;99515.28;10528200;28;20136;-69
2021/04/11 04:12:10;;;;;;;7.75;7.05;;;;;;;9.41;59.57;99524.03;10529206;28;20051;-71
2021/04/11 04:17:35;;;;;;;8.20;7.38;;;;;;;9.34;59.73;99517.28;10527789;28;20048;-70
2021/04/11 04:23:04;;;;;;;8.00;6.88;;;;;;;9.28;59.81;99513.13;10527399;28;20046;-71
2021/04/11 04:28:19;;;;;;;8.77;7.38;;;;;;;9.22;59.70;99515.13;10544965;28;20036;-69
2021/04/11 04:33:53;;;;;;;8.57;7.82;;;;;;;8.92;60.63;99520.47;10526766;28;20051;-69
2021/04/11 04:39:11;;;;;;;8.55;7.65;;;;;;;9.14;59.91;99509.28;10527460;28;20123;-70
2021/04/11 04:44:46;;;;;;;9.45;7.38;;;;;;;9.04;59.81;99509.59;10528057;28;20525;-70
2021/04/11 04:50:24;;;;;;;8.20;7.10;;;;;;;9.32;58.80;99504.25;10544052;28;20064;-71
2021/04/11 04:55:36;;;;;;;7.38;6.65;;;;;;;9.23;59.32;99506.34;10543678;28;20043;-70
2021/04/11 05:00:45;;;;;;;7.38;6.53;;;;;;;9.10;59.73;99506.75;10525304;28;20131;-70
2021/04/11 05:06:09;;;;;;;9.55;6.97;;;;;;;9.49;57.72;99508.91;10526941;28;20561;-69
2021/04/11 05:11:25;;;;;;;8.38;6.70;;;;;;;9.46;58.29;99513.38;10510445;28;20048;-69
2021/04/11 05:16:49;;;;;;;7.18;5.88;;;;;;;9.56;57.36;99507.78;10525072;28;20109;-69
2021/04/11 05:21:59;;;;;;;8.63;6.60;;;;;;;9.41;58.07;99512.69;10542442;28;20046;-70
2021/04/11 05:27:08;;;;;;;7.07;6.38;;;;;;;9.54;57.31;99504.34;10524838;28;20048;-70
2021/04/11 05:32:18;;;;;;;9.20;6.00;;;;;;;9.79;56.77;99500.81;10532159;28;20044;-69
2021/04/11 05:37:40;;;;;;;5.95;5.45;;;;;;;9.89;56.21;99502.19;10534078;28;20067;-70
2021/04/11 05:42:46;;;;;;;6.22;5.63;;;;;;;9.70;56.85;99498.53;10553164;28;20062;-70
2021/04/11 05:48:13;;;;;;;13.10;6.18;;;;;;;9.96;56.09;99502.81;10551528;28;20039;-70
2021/04/11 05:53:20;;;;;;;7.63;6.82;;;;;;;10.27;55.07;99506.03;10551158;28;20040;-69
2021/04/11 05:58:27;;;;;;;6.80;5.55;;;;;;;10.31;54.89;99502.38;10550453;28;20451;-70
2021/04/11 06:03:30;;;;;;;5.83;4.37;;;;;;;12.38;49.92;99506.56;10550997;28;20047;-70
2021/04/11 06:08:48;;;;;;;9.95;5.10;;;;;;;15.13;43.88;99499.00;10550851;28;20054;-70
2021/04/11 06:14:01;;;;;;;4.88;4.38;;;;;;;15.56;42.32;99497.28;10531578;28;20036;-70
2021/04/11 06:19:06;;;;;;;6.63;4.68;;;;;;;15.35;42.07;99486.19;10549690;28;20051;-70
2021/04/11 06:24:20;;;;;;;5.22;3.65;;;;;;;15.75;40.71;99496.19;10551006;28;20036;-70
2021/04/11 06:29:26;;;;;;;5.88;3.10;;;;;;;15.60;41.27;99496.16;10532532;28;20044;-70
2021/04/11 06:34:51;;;;;;;3.80;3.28;;;;;;;16.14;40.39;99499.00;10548946;28;20042;-71
2021/04/11 06:39:54;;;;;;;4.90;3.83;;;;;;;14.53;43.75;99493.69;10546663;28;20044;-71
2021/04/11 06:45:08;;;;;;;5.22;3.80;;;;;;;13.11;45.22;99497.69;10549552;28;20047;-72
2021/04/11 06:50:29;;;;;;;6.93;3.78;;;;;;;13.09;46.41;99504.81;10549324;28;20048;-70
2021/04/11 06:55:54;;;;;;;4.13;3.40;;;;;;;12.72;46.39;99510.22;10549017;28;20394;-70
2021/04/11 07:00:58;;;;;;;4.65;3.42;;;;;;;12.35;46.56;99504.94;10550038;28;20044;-70
2021/04/11 07:06:41;;;;;;;4.07;3.67;;;;;;;12.43;45.97;99501.94;10548703;28;20040;-71
2021/04/11 07:12:24;;;;;;;5.10;3.38;;;;;;;12.70;46.91;99502.38;10530647;28;20398;-70
2021/04/11 07:17:48;;;;;;;4.80;3.10;;;;;;;12.66;46.86;99498.19;10547241;28;20509;-70
2021/04/11 07:23:08;;;;;;;4.38;2.90;;;;;;;12.73;46.39;99489.03;10545786;28;20040;-71
2021/04/11 07:28:15;;;;;;;9.00;2.63;;;;;;;13.18;46.09;99492.09;10545203;28;20044;-71
2021/04/11 07:33:38;;;;;;;5.72;2.67;;;;;;;13.75;44.49;99487.38;10528321;28;20032;-70
2021/04/11 07:38:51;;;;;;;4.40;2.30;;;;;;;14.31;44.25;99488.72;10545371;28;20070;-70
2021/04/11 07:44:15;;;;;;;2.85;2.17;;;;;;;14.46;42.82;99471.97;10529284;28;20050;-71
2021/04/11 07:49:20;;;;;;;4.55;2.60;;;;;;;15.20;42.18;99473.88;10528391;28;20075;-71
2021/04/11 07:54:59;;;;;;;5.57;2.53;;;;;;;15.95;41.27;99465.81;10546978;28;20036;-70
2021/04/11 08:00:26;;;;;;;3.70;2.20;;;;;;;16.41;39.07;99469.03;10529744;28;20040;-70
2021/04/11 08:06:02;;;;;;;2.90;2.03;;;;;;;16.73;38.95;99466.94;10545328;28;20044;-71
2021/04/11 08:11:22;;;;;;;5.53;2.83;;;;;;;16.35;37.66;99454.38;10545899;28;20081;-70
2021/04/11 08:16:42;;;;;;;5.22;2.80;;;;;;;16.11;39.02;99478.03;10526690;28;20050;-70
2021/04/11 08:21:53;;;;;;;3.38;2.60;;;;;;;16.12;38.99;99468.25;10544705;28;20423;-68
2021/04/11 08:26:54;;;;;;;5.13;2.55;;;;;;;16.35;37.99;99454.38;10545540;28;20085;-71
2021/04/11 08:32:39;;;;;;;4.20;2.80;;;;;;;16.51;39.08;99435.66;10544196;28;20046;-71
2021/04/11 08:38:02;;;;;;;2.95;2.63;;;;;;;16.45;38.63;99444.00;10526815;28;20044;-68
2021/04/11 08:43:18;;;;;;;5.30;2.40;;;;;;;16.62;38.90;99451.72;10543260;28;20040;-67
2021/04/11 08:48:25;;;;;;;;;;;;;;;16.84;37.10;99445.00;10525605;28;20052;-68
2021/04/11 08:53:45;;;;;;;3.28;2.40;;;;;;;16.18;38.45;99453.75;10543409;28;20366;-68
2021/04/11 08:59:27;;;;;;;4.25;2.88;;;;;;;15.59;39.61;99457.38;10524463;28;20086;-69
2021/04/11 09:04:37;;;;;;;3.78;2.97;;;;;;;15.62;39.52;99454.53;10427339;28;20492;-69
2021/04/11 09:09:54;;;;;;;4.47;2.47;;;;;;;16.74;37.96;99450.09;10541490;28;20044;-70
2021/04/11 09:15:09;;;;;;;4.65;2.72;;;;;;;16.41;38.40;99445.16;10543791;28;20048;-68
2021/04/11 09:20:33;;;;;;;4.72;3.00;;;;;;;16.17;38.81;99439.66;10542956;28;20039;-69
2021/04/11 09:25:36;;;;;;;4.00;3.28;;;;;;;16.39;39.35;99433.81;10542375;28;20081;-68
2021/04/11 09:30:57;;;;;;;4.65;2.92;;;;;;;16.98;38.24;99436.13;10541984;28;20090;-69
2021/04/11 09:36:18;;;;;;;9.68;3.78;;;;;;;17.06;38.59;99432.00;10542374;28;20374;-70
2021/04/11 09:41:30;;;;;;;3.17;2.78;;;;;;;17.29;37.63;99433.06;10540933;28;20032;-68
2021/04/11 09:46:50;;;;;;;5.53;2.58;;;;;;;17.18;38.44;99426.78;10522834;28;20471;-68
2021/04/11 09:52:00;;;;;;;3.97;3.53;;;;;;;17.97;38.51;99418.53;10541486;28;20093;-69
2021/04/11 09:57:09;;;;;;;4.00;2.80;;;;;;;18.24;38.33;99421.03;10524575;28;20110;-68
2021/04/11 10:02:14;;;;;;;4.55;3.22;;;;;;;19.11;35.44;99411.00;10523841;28;20048;-69
2021/04/11 10:08:12;;;;;;;3.22;2.50;;;;;;;19.25;36.14;99407.25;10541975;28;20541;-69
2021/04/11 10:13:31;;;;;;;3.35;3.05;;;;;;;19.03;34.95;99398.25;10331579;28;20062;-66
2021/04/11 10:18:56;;;;;;;5.10;3.42;;;;;;;19.23;35.92;99404.72;10324459;28;20498;-67
2021/04/11 10:24:35;;;;;;;6.43;3.70;;;;;;;19.16;35.79;99399.00;10314491;28;20121;-67
2021/04/11 10:29:37;;;;;;;4.10;2.70;;;;;;;19.39;35.81;99391.06;10337809;28;20122;-67
2021/04/11 10:34:57;;;;;;;2.88;2.50;;;;;;;19.41;35.38;99395.28;10337354;28;20124;-67
2021/04/11 10:40:36;;;;;;;3.65;3.03;;;;;;;20.13;36.44;99383.38;10326368;28;20042;-66
2021/04/11 10:46:08;;;;;;;3.90;3.10;;;;;;;19.70;35.12;99397.50;10547266;28;20052;-67
2021/04/11 10:51:22;;;;;;;7.53;3.15;;;;;;;19.94;35.76;99383.19;10529300;28;20048;-67
2021/04/11 10:56:35;;;;;;;3.83;2.85;;;;;;;20.00;34.39;99391.50;10547394;28;20115;-67
2021/04/11 11:01:39;;;;;;;5.05;2.92;;;;;;;19.99;35.69;99387.16;10547284;28;20396;-67
2021/04/11 11:07:16;;;;;;;5.25;3.63;;;;;;;19.79;34.60;99386.13;10548355;28;20439;-68
2021/04/11 11:12:33;;;;;;;5.28;3.50;;;;;;;19.98;33.98;99382.81;10550135;28;20040;-68
2021/04/11 11:17:46;;;;;;;4.90;3.05;;;;;;;19.75;35.51;99382.00;10549682;28;20040;-67
2021/04/11 11:23:20;;;;;;;3.92;3.50;;;;;;;19.98;35.50;99374.81;10548577;28;20044;-67
2021/04/11 11:29:00;;;;;;;5.15;3.28;;;;;;;20.12;35.55;99376.34;10527637;28;20089;-68
2021/04/11 11:34:18;;;;;;;5.82;3.30;;;;;;;20.20;35.54;99378.38;10547169;28;20040;-68
2021/04/11 11:39:30;;;;;;;5.05;2.92;;;;;;;20.18;34.71;99375.81;10546911;28;20051;-67
2021/04/11 11:44:40;;;;;;;3.83;3.15;;;;;;;19.99;34.72;99370.31;10547143;28;20039;-68
2021/04/11 11:49:44;;;;;;;3.58;2.97;;;;;;;20.39;34.14;99378.56;10548211;28;20040;-69
2021/04/11 11:55:02;;;;;;;4.43;3.17;;;;;;;20.01;35.53;99374.56;10530750;28;20047;-68
2021/04/11 12:00:18;;;;;;;4.03;3.20;;;;;;;20.38;35.39;99372.38;10528285;28;20036;-67
2021/04/11 12:05:30;;;;;;;3.63;3.33;;;;;;;20.42;35.38;99372.97;10547233;28;20052;-68
2021/04/11 12:10:40;;;;;;;4.28;3.10;;;;;;;19.42;35.50;99378.31;10547622;28;20039;-69
2021/04/11 12:16:07;;;;;;;3.97;3.63;;;;;;;19.51;36.74;99375.91;10546304;28;20048;-68
2021/04/11 12:21:20;;;;;;;4.97;3.97;;;;;;;19.34;37.80;99367.41;10529122;28;20032;-68
2021/04/11 12:26:22;;;;;;;5.80;4.00;;;;;;;19.49;37.15;99369.84;10547049;28;20032;-67
2021/04/11 12:31:45;;;;;;;5.28;4.47;;;;;;;20.00;35.58;99362.16;10527485;28;20070;-67
2021/04/11 12:37:15;;;;;;;4.50;3.88;;;;;;;20.50;33.55;99359.03;10546003;28;20105;-67
2021/04/11 12:42:28;;;;;;;5.40;3.83;;;;;;;20.87;32.50;99351.41;10545027;28;20047;-67
2021/04/11 12:48:03;;;;;;;4.95;3.83;;;;;;;21.07;31.15;99353.22;10526903;28;20081;-68
2021/04/11 12:53:23;;;;;;;4.00;3.63;;;;;;;21.08;31.47;99346.06;10544389;28;20040;-67
2021/04/11 12:58:45;;;;;;;4.47;3.92;;;;;;;20.24;33.94;99353.16;10545398;28;20040;-67
2021/04/11 13:03:52;;;;;;;4.10;3.70;;;;;;;19.86;35.95;99343.78;10544629;28;20089;-68
2021/04/11 13:09:14;;;;;;;7.40;3.92;;;;;;;19.83;35.55;99355.56;10546029;28;20051;-68
2021/04/11 13:14:33;;;;;;;5.65;4.22;;;;;;;19.67;35.44;99354.25;10544773;28;20090;-69
2021/04/11 13:19:55;;;;;;;6.40;4.05;;;;;;;19.44;36.12;99348.91;10545001;28;20067;-69
2021/04/11 13:25:08;;;;;;;4.93;3.88;;;;;;;19.41;36.76;99344.66;10544177;28;20044;-67
2021/04/11 13:30:19;;;;;;;5.43;3.72;;;;;;;19.47;36.55;99331.78;10543372;28;20044;-69
2021/04/11 13:35:22;;;;;;;4.80;3.55;;;;;;;19.56;36.00;99342.56;10542569;28;20068;-69
2021/04/11 13:40:26;;;;;;;7.63;4.05;;;;;;;19.27;36.55;99354.72;10524177;28;20158;-69
2021/04/11 13:45:39;;;;;;;4.38;3.97;;;;;;;19.37;36.17;99348.53;10541687;28;20052;-68
2021/04/11 13:51:13;;;;;;;4.70;3.80;;;;;;;19.51;35.72;99350.09;10527512;28;20040;-69
2021/04/11 13:56:57;;;;;;;5.15;3.72;;;;;;;19.34;35.51;99347.91;10550491;28;20040;-68
2021/04/11 14:02:14;;;;;;;5.30;4.75;;;;;;;19.17;35.95;99335.94;10339922;28;20051;-68
2021/04/11 14:07:27;;;;;;;6.80;4.22;;;;;;;19.10;36.83;99346.22;10323498;28;20054;-69
2021/04/11 14:12:39;;;;;;;4.90;3.70;;;;;;;19.02;36.69;99329.13;10340934;28;20093;-67
2021/04/11 14:17:51;;;;;;;4.40;3.53;;;;;;;18.89;37.47;99330.06;10351344;28;20096;-68
2021/04/11 14:22:57;;;;;;;6.38;3.72;;;;;;;18.97;35.99;99324.16;10364907;28;20520;-67
2021/04/11 14:28:29;;;;;;;5.05;3.53;;;;;;;18.91;37.55;99319.31;10381341;28;20054;-67
2021/04/11 14:33:34;;;;;;;6.60;4.30;;;;;;;19.07;36.45;99318.97;10427156;28;20048;-68
2021/04/11 14:38:55;;;;;;;7.63;4.38;;;;;;;18.96;36.47;99325.13;10532386;28;20455;-68
2021/04/11 14:43:59;;;;;;;6.07;4.75;;;;;;;18.67;36.56;99327.34;10548191;28;20547;-68
2021/04/11 14:49:08;;;;;;;5.07;3.72;;;;;;;18.55;36.68;99325.59;10549790;28;20047;-68
2021/04/11 14:54:21;;;;;;;6.03;3.83;;;;;;;18.55;36.37;99330.91;10548831;28;20040;-68
2021/04/11 14:59:32;;;;;;;6.38;3.63;;;;;;;18.48;37.04;99324.38;10529843;28;20278;-68
2021/04/11 15:05:08;;;;;;;6.43;4.15;;;;;;;18.47;37.63;99326.19;10544560;28;20091;-68
2021/04/11 15:10:37;;;;;;;5.13;3.97;;;;;;;18.30;37.11;99326.63;10548238;28;20051;-67
2021/04/11 15:16:05;;;;;;;6.43;3.95;;;;;;;18.40;37.99;99331.13;10511925;28;20044;-68
2021/04/11 15:21:15;;;;;;;7.38;4.13;;;;;;;18.50;37.10;99333.09;10545933;28;20062;-67
2021/04/11 15:26:23;;;;;;;5.20;4.70;;;;;;;18.56;37.42;99330.81;10546525;28;20051;-69
2021/04/11 15:31:49;;;;;;;5.13;4.28;;;;;;;18.52;37.21;99320.53;10545910;28;20101;-67
2021/04/11 15:37:10;;;;;;;;;;;;;;;18.59;36.89;99325.28;10527833;28;20466;-68
2021/04/11 15:42:18;;;;;;;5.05;3.85;;;;;;;18.78;37.39;99321.25;10528258;28;19920;-68
2021/04/11 15:47:39;;;;;;;4.10;3.42;;;;;;;18.86;37.35;99327.66;10545011;28;20097;-68
2021/04/11 15:53:00;;;;;;;5.25;4.20;;;;;;;18.79;37.42;99325.59;10545632;28;20048;-67
2021/04/11 15:58:14;;;;;;;13.80;10.20;;;;;;;18.53;38.21;99323.06;10545625;28;20051;-68
2021/04/11 16:03:35;;;;;;;5.75;3.80;;;;;;;18.45;38.40;99333.44;10544716;28;20058;-69
2021/04/11 16:08:50;;;;;;;8.40;7.57;;;;;;;18.39;38.24;99336.56;10545358;28;20040;-69
2021/04/11 16:14:15;;;;;;;8.40;3.40;;;;;;;18.48;37.96;99337.69;10544587;28;20127;-70
2021/04/11 16:19:20;;;;;;;6.50;3.85;;;;;;;18.44;37.98;99330.91;10525478;28;20039;-69
2021/04/11 16:24:55;;;;;;;4.70;3.50;;;;;;;18.31;37.98;99330.97;10527461;28;20048;-69
2021/04/11 16:30:14;;;;;;;7.43;3.35;;;;;;;18.33;38.12;99342.38;10525422;28;20062;-69
2021/04/11 16:35:32;;;;;;;5.05;3.60;;;;;;;17.99;38.49;99334.22;10543215;28;20048;-70
2021/04/11 16:41:08;;;;;;;5.28;4.13;;;;;;;17.98;38.70;99337.84;10542059;28;20036;-70
2021/04/11 16:46:12;;;;;;;5.10;3.22;;;;;;;17.77;38.66;99342.91;10542600;28;20521;-69
2021/04/11 16:51:30;;;;;;;4.45;4.05;;;;;;;17.64;39.23;99342.91;10527995;28;20047;-69
2021/04/11 16:56:38;;;;;;;4.65;3.70;;;;;;;17.33;40.15;99348.69;10542653;28;20040;-69
2021/04/11 17:01:51;;;;;;;5.82;3.63;;;;;;;17.17;40.54;99348.06;10541722;28;20040;-70
2021/04/11 17:06:59;;;;;;;6.97;3.83;;;;;;;17.13;40.46;99343.00;10523485;28;20064;-69
2021/04/11 17:12:17;;;;;;;4.57;3.97;;;;;;;16.96;41.10;99351.28;10540475;28;20043;-70
2021/04/11 17:17:24;;;;;;;4.63;4.00;;;;;;;16.78;41.30;99358.69;10523228;28;20048;-70
2021/04/11 17:22:34;;;;;;;;;;;;;;;16.59;41.66;99369.66;10541761;28;20036;-69
2021/04/11 17:27:45;;;;;;;5.07;4.35;;;;;;;16.51;42.43;99366.69;10541012;28;19927;-70
2021/04/11 17:33:01;;;;;;;6.22;4.32;;;;;;;16.29;42.63;99375.22;10541859;28;20490;-70
2021/04/11 17:38:16;;;;;;;6.18;4.20;;;;;;;16.36;42.62;99370.34;10524593;28;20444;-71
2021/04/11 17:43:40;;;;;;;7.03;4.40;;;;;;;16.36;42.74;99376.50;10542088;28;20548;-69
2021/04/11 17:48:55;;;;;;;4.72;4.30;;;;;;;16.36;42.62;99376.50;10543600;28;20382;-70
2021/04/11 17:54:17;;;;;;;7.13;4.47;;;;;;;16.30;42.46;99379.56;10543263;28;20383;-69
2021/04/11 17:59:41;;;;;;;6.32;4.57;;;;;;;16.34;41.98;99385.53;10542571;28;20048;-69
2021/04/11 18:04:54;;;;;;;6.95;4.97;;;;;;;16.23;42.23;99383.56;10542686;28;20209;-69
2021/04/11 18:10:22;;;;;;;6.70;4.13;;;;;;;16.18;42.17;99390.13;10542365;28;20462;-69
2021/04/11 18:15:35;;;;;;;7.13;3.60;;;;;;;16.11;42.45;99397.59;10541610;28;20048;-69
2021/04/11 18:20:45;;;;;;;6.85;5.03;;;;;;;16.05;42.60;99409.47;10542013;28;20040;-68
2021/04/11 18:26:09;;;;;;;6.18;4.53;;;;;;;15.97;42.83;99422.34;10541389;28;20051;-69
2021/04/11 18:31:30;;;;;;;9.30;4.15;;;;;;;15.60;43.65;99415.84;10541012;28;20040;-71
2021/04/11 18:36:41;;;;;;;6.10;4.75;;;;;;;15.92;42.61;99420.94;10527930;28;20150;-70
2021/04/11 18:42:05;;;;;;;5.35;4.72;;;;;;;15.60;43.79;99418.50;10532748;28;20059;-70
2021/04/11 18:47:23;;;;;;;4.63;4.15;;;;;;;15.37;44.18;99427.88;10550096;28;20119;-70
2021/04/11 18:52:50;;;;;;;5.40;4.88;;;;;;;15.49;43.55;99440.31;10530971;28;20037;-70
2021/04/11 18:58:13;;;;;;;4.63;4.07;;;;;;;15.68;43.79;99434.81;10549792;28;20036;-70
2021/04/11 19:03:25;;;;;;;6.32;4.25;;;;;;;15.64;43.58;99434.13;10531627;28;20036;-70
2021/04/11 19:08:50;;;;;;;5.80;4.60;;;;;;;15.62;43.62;99446.56;10548687;28;20066;-69
2021/04/11 19:14:38;;;;;;;6.93;4.50;;;;;;;15.64;43.92;99444.72;10531698;28;20040;-70
2021/04/11 19:19:45;;;;;;;4.22;3.83;;;;;;;15.50;44.48;99443.84;10548456;28;20056;-70
2021/04/11 19:24:48;;;;;;;5.85;4.85;;;;;;;15.52;44.43;99450.75;10547749;28;20040;-70
2021/04/11 19:30:14;;;;;;;4.88;4.25;;;;;;;15.03;45.27;99501.34;10523121;28;20048;-69
2021/04/11 19:35:34;;;;;;;5.85;5.32;;;;;;;14.88;47.97;99510.19;10548668;28;20379;-69
2021/04/11 19:41:06;;;;;;;6.05;5.03;;;;;;;14.84;49.05;99501.56;10549204;28;20047;-69
2021/04/11 19:46:50;;;;;;;9.50;5.35;;;;;;;14.54;51.87;99535.91;10529143;28;20051;-69
2021/04/11 19:52:18;;;;;;;9.27;8.60;;;;;;;13.71;57.07;99538.66;10499986;28;20056;-69
2021/04/11 19:58:01;;;;;;;9.07;8.48;;;;;;;13.62;57.62;99543.47;10546805;28;20478;-70
2021/04/11 20:03:36;;;;;;;9.95;9.25;;;;;;;13.14;59.64;99555.56;10517981;28;20387;-70
2021/04/11 20:09:19;;;;;;;11.60;10.80;;;;;;;12.60;61.38;99588.13;10527020;28;20048;-69
2021/04/11 20:14:43;;;;;;;11.82;11.07;;;;;;;11.72;63.57;99632.47;10544981;28;20040;-69
2021/04/11 20:20:03;;;;;;;10.88;10.13;;;;;;;11.03;64.11;99633.56;10545795;28;20382;-69
2021/04/11 20:25:41;;;;;;;10.70;10.00;;;;;;;10.67;65.04;99646.38;10545778;28;20044;-67
2021/04/11 20:30:55;;;;;;;13.05;11.95;;;;;;;10.37;65.80;99663.28;10546195;28;20068;-68
2021/04/11 20:36:04;;;;;;;10.23;9.63;;;;;;;10.27;66.15;99675.88;10527083;28;20115;-68
2021/04/11 20:41:17;;;;;;;9.95;9.25;;;;;;;10.03;65.96;99698.59;10527948;28;20087;-67
2021/04/11 20:46:28;;;;;;;11.35;10.63;;;;;;;9.90;66.89;99719.16;10545005;28;20501;-68
2021/04/11 20:52:01;;;;;;;10.32;9.63;;;;;;;9.53;67.35;99737.91;10545079;28;20040;-67
2021/04/11 20:57:11;;;;;;;11.32;10.52;;;;;;;9.48;68.07;99747.69;10546207;28;20090;-67
2021/04/11 21:02:43;;;;;;;11.80;10.65;;;;;;;9.32;68.01;99755.19;10545462;28;20036;-68
2021/04/11 21:08:17;;;;;;;12.18;11.23;;;;;;;9.29;67.97;99761.38;10526619;28;20040;-68
2021/04/11 21:13:52;;;;;;;11.57;10.68;;;;;;;9.44;67.50;99791.53;10525352;28;20036;-67
2021/04/11 21:19:18;;;;;;;10.52;9.65;;;;;;;9.00;68.22;99809.47;10526067;28;20498;-67
2021/04/11 21:24:37;;;;;;;8.57;7.97;;;;;;;8.96;67.56;99823.56;10544688;28;20036;-68
2021/04/11 21:30:08;;;;;;;7.60;7.00;;;;;;;8.71;67.42;99839.09;10544592;28;20401;-67
2021/04/11 21:35:32;;;;;;;6.20;5.80;;;;;;;8.54;67.90;99850.06;10526061;28;20143;-66
2021/04/11 21:40:54;;;;;;;5.00;4.70;;;;;;;8.22;67.27;99871.78;10525290;28;20504;-68
2021/04/11 21:46:41;;;;;;;4.50;4.20;;;;;;;8.06;67.56;99892.25;10524655;28;20114;-67
2021/04/11 21:52:05;;;;;;;4.23;3.93;;;;;;;8.09;66.76;99917.47;10542354;28;20040;-67
2021/04/11 21:57:39;;;;;;;3.35;3.15;;;;;;;8.18;66.29;99924.25;10543317;28;20309;-67
2021/04/11 22:02:49;;;;;;;4.75;4.32;;;;;;;8.02;67.30;99940.34;10525203;28;20047;-67
2021/04/11 22:08:13;;;;;;;5.63;5.30;;;;;;;7.59;68.17;99946.50;10543163;28;20054;-67
2021/04/11 22:13:33;;;;;;;4.28;3.97;;;;;;;7.29;68.52;99947.13;10501506;28;20036;-69
2021/04/11 22:18:47;;;;;;;4.13;3.85;;;;;;;7.28;68.32;99950.63;10548522;28;20043;-68
2021/04/11 22:23:51;;;;;;;3.35;3.05;;;;;;;7.24;68.20;99965.50;10530270;28;20040;-68
2021/04/11 22:29:04;;;;;;;5.28;4.97;;;;;;;7.16;69.48;99985.69;10548164;28;20048;-68
2021/04/11 22:34:13;;;;;;;5.70;5.40;;;;;;;7.08;70.23;99995.44;10549255;28;20036;-68
2021/04/11 22:39:42;;;;;;;6.45;6.05;;;;;;;6.72;70.72;100026.53;10530671;28;20105;-67
2021/04/11 22:44:49;;;;;;;6.93;6.43;;;;;;;6.47;71.00;100041.75;10548539;28;20135;-68
2021/04/11 22:49:56;;;;;;;5.90;5.47;;;;;;;6.37;71.07;100042.75;10547336;28;20074;-68
2021/04/11 22:55:09;;;;;;;5.45;5.05;;;;;;;6.32;71.04;100050.63;10548891;28;20040;-68
2021/04/11 23:00:27;;;;;;;5.47;5.18;;;;;;;6.21;70.49;100052.56;10547720;28;20098;-68
2021/04/11 23:05:43;;;;;;;5.15;4.85;;;;;;;6.34;69.96;100057.63;10548080;28;20505;-70
2021/04/11 23:11:04;;;;;;;5.10;4.78;;;;;;;6.39;69.98;100064.50;10548543;28;20040;-68
2021/04/11 23:16:12;;;;;;;6.10;5.75;;;;;;;6.47;70.10;100065.25;10547046;28;20036;-69
2021/04/11 23:21:34;;;;;;;7.50;6.90;;;;;;;6.35;71.05;100075.00;10545855;28;20405;-68
2021/04/11 23:26:57;;;;;;;6.90;6.50;;;;;;;6.28;71.00;100080.28;10528325;28;20040;-68
2021/04/11 23:32:03;;;;;;;7.97;7.47;;;;;;;6.21;71.30;100090.84;10545954;28;20551;-70
2021/04/11 23:37:13;;;;;;;8.75;8.15;;;;;;;6.01;71.47;100099.78;10546258;28;20068;-68
2021/04/11 23:42:59;;;;;;;8.73;8.23;;;;;;;6.00;71.55;100105.03;10545820;28;20036;-68
2021/04/11 23:48:12;;;;;;;8.48;8.00;;;;;;;5.99;71.70;100117.22;10500842;28;20062;-69
2021/04/11 23:53:31;;;;;;;7.35;6.95;;;;;;;5.93;70.87;100108.56;10545823;28;20043;-69
2021/04/11 23:58:39;;;;;;;7.28;6.88;;;;;;;5.89;70.75;100109.44;10546130;28;20122;-68
